首页
METAR-TAF:

METAR-TAF

机场 :

Burlington-Alamance Regional Airport

伯灵顿, 北卡罗来纳州, 美国

纬度: 36-02-52N, 经度: 079-28-26W, 海拔: 188米

当前天气观测

该预报发布于13分钟前的10:10 UTC
静风
温度 21°C
湿度 88%
气压 1019 hPa
能見度: 2.4公里
天空无云
轻雾

METAR: KBUY 261010Z AUTO 00000KT 1 1/2SM BR CLR 21/19 A3010 RMK AO2 T02060194

时间: 06:23 (10:23 UTC)


TAF: 丢失

超过4000个机场的气象观测和天气预报(METAR&TAF报告)。

可查询的气象台以黄色和红色小点在地图上表示。

将鼠标移到小点上方,可查看气象台名称。

然后点击查看天气观测和预报。

如需切换地图:点击带黑十字的绿色按钮放大地图;点击带横线的绿色按钮缩小地图;或者点击绿色箭头查看邻近地区的地图。


METAR-TAF: